sensor_id;sensor_type;location;lat;lon;timestamp;P1;durP1;ratioP1;P2;durP2;ratioP2
52041;SDS011;38052;45.944;13.624;2023-01-29T00:00:41;14.98;;;9.73;;
52041;SDS011;38052;45.944;13.624;2023-01-29T00:03:07;14.52;;;9.13;;
52041;SDS011;38052;45.944;13.624;2023-01-29T00:05:53;14.93;;;9.27;;
52041;SDS011;38052;45.944;13.624;2023-01-29T00:08:39;15.43;;;9.73;;
52041;SDS011;38052;45.944;13.624;2023-01-29T00:11:25;15.35;;;10.60;;
52041;SDS011;38052;45.944;13.624;2023-01-29T00:13:52;17.67;;;9.85;;
52041;SDS011;38052;45.944;13.624;2023-01-29T00:16:38;15.80;;;9.65;;
52041;SDS011;38052;45.944;13.624;2023-01-29T00:19:24;15.63;;;9.50;;
52041;SDS011;38052;45.944;13.624;2023-01-29T00:22:10;17.77;;;9.85;;
52041;SDS011;38052;45.944;13.624;2023-01-29T00:24:56;18.17;;;11.25;;
52041;SDS011;38052;45.944;13.624;2023-01-29T00:27:23;21.95;;;11.48;;
52041;SDS011;38052;45.944;13.624;2023-01-29T00:30:09;17.58;;;10.25;;
52041;SDS011;38052;45.944;13.624;2023-01-29T00:32:37;14.15;;;7.28;;
52041;SDS011;38052;45.944;13.624;2023-01-29T00:35:04;13.05;;;7.40;;
52041;SDS011;38052;45.944;13.624;2023-01-29T00:37:30;14.90;;;8.93;;
52041;SDS011;38052;45.944;13.624;2023-01-29T00:40:16;16.80;;;7.85;;
52041;SDS011;38052;45.944;13.624;2023-01-29T00:43:02;15.15;;;8.68;;
52041;SDS011;38052;45.944;13.624;2023-01-29T00:45:46;12.77;;;8.43;;
52041;SDS011;38052;45.944;13.624;2023-01-29T00:48:33;13.75;;;8.18;;
52041;SDS011;38052;45.944;13.624;2023-01-29T00:51:19;17.70;;;8.02;;
52041;SDS011;38052;45.944;13.624;2023-01-29T00:53:45;10.90;;;7.38;;
52041;SDS011;38052;45.944;13.624;2023-01-29T00:56:11;14.88;;;8.32;;
52041;SDS011;38052;45.944;13.624;2023-01-29T00:58:57;13.75;;;9.15;;
52041;SDS011;38052;45.944;13.624;2023-01-29T01:01:43;15.60;;;9.38;;
52041;SDS011;38052;45.944;13.624;2023-01-29T01:04:27;16.33;;;10.10;;
52041;SDS011;38052;45.944;13.624;2023-01-29T01:07:13;17.75;;;10.18;;
52041;SDS011;38052;45.944;13.624;2023-01-29T01:09:59;18.35;;;10.88;;
52041;SDS011;38052;45.944;13.624;2023-01-29T01:12:44;18.00;;;11.23;;
52041;SDS011;38052;45.944;13.624;2023-01-29T01:15:11;15.25;;;9.38;;
52041;SDS011;38052;45.944;13.624;2023-01-29T01:17:37;14.60;;;9.18;;
52041;SDS011;38052;45.944;13.624;2023-01-29T01:20:04;17.75;;;12.07;;
52041;SDS011;38052;45.944;13.624;2023-01-29T01:22:30;18.33;;;11.40;;
52041;SDS011;38052;45.944;13.624;2023-01-29T01:24:56;16.17;;;10.95;;
52041;SDS011;38052;45.944;13.624;2023-01-29T01:27:23;19.77;;;11.60;;
52041;SDS011;38052;45.944;13.624;2023-01-29T01:29:49;18.00;;;11.60;;
52041;SDS011;38052;45.944;13.624;2023-01-29T01:32:16;21.95;;;12.57;;
52041;SDS011;38052;45.944;13.624;2023-01-29T01:34:42;18.50;;;11.30;;
52041;SDS011;38052;45.944;13.624;2023-01-29T01:37:12;18.88;;;11.80;;
52041;SDS011;38052;45.944;13.624;2023-01-29T01:39:38;15.55;;;9.75;;
52041;SDS011;38052;45.944;13.624;2023-01-29T01:42:08;21.65;;;12.23;;
52041;SDS011;38052;45.944;13.624;2023-01-29T01:44:50;19.23;;;10.15;;
52041;SDS011;38052;45.944;13.624;2023-01-29T01:47:16;19.70;;;11.80;;
52041;SDS011;38052;45.944;13.624;2023-01-29T01:49:45;20.38;;;11.95;;
52041;SDS011;38052;45.944;13.624;2023-01-29T01:52:12;21.23;;;12.65;;
52041;SDS011;38052;45.944;13.624;2023-01-29T01:54:40;22.58;;;11.57;;
52041;SDS011;38052;45.944;13.624;2023-01-29T01:57:09;19.73;;;10.95;;
52041;SDS011;38052;45.944;13.624;2023-01-29T01:59:41;18.38;;;9.88;;
52041;SDS011;38052;45.944;13.624;2023-01-29T02:02:08;16.58;;;9.85;;
52041;SDS011;38052;45.944;13.624;2023-01-29T02:04:52;16.23;;;10.27;;
52041;SDS011;38052;45.944;13.624;2023-01-29T02:07:40;19.63;;;10.23;;
52041;SDS011;38052;45.944;13.624;2023-01-29T02:10:26;19.60;;;9.55;;
52041;SDS011;38052;45.944;13.624;2023-01-29T02:12:54;17.92;;;11.02;;
52041;SDS011;38052;45.944;13.624;2023-01-29T02:15:21;16.63;;;9.27;;
52041;SDS011;38052;45.944;13.624;2023-01-29T02:17:48;13.48;;;8.48;;
52041;SDS011;38052;45.944;13.624;2023-01-29T02:20:18;16.15;;;9.35;;
52041;SDS011;38052;45.944;13.624;2023-01-29T02:30:51;16.75;;;9.43;;
52041;SDS011;38052;45.944;13.624;2023-01-29T02:33:21;13.73;;;8.63;;
52041;SDS011;38052;45.944;13.624;2023-01-29T02:41:07;15.27;;;7.57;;
52041;SDS011;38052;45.944;13.624;2023-01-29T02:43:46;14.23;;;8.50;;
52041;SDS011;38052;45.944;13.624;2023-01-29T02:48:44;15.55;;;8.88;;
52041;SDS011;38052;45.944;13.624;2023-01-29T02:51:18;17.80;;;11.23;;
52041;SDS011;38052;45.944;13.624;2023-01-29T02:53:54;20.60;;;11.07;;
52041;SDS011;38052;45.944;13.624;2023-01-29T02:56:32;16.90;;;10.43;;
52041;SDS011;38052;45.944;13.624;2023-01-29T02:59:04;17.77;;;10.85;;
52041;SDS011;38052;45.944;13.624;2023-01-29T03:01:37;20.00;;;10.98;;
52041;SDS011;38052;45.944;13.624;2023-01-29T03:04:07;16.08;;;10.27;;
52041;SDS011;38052;45.944;13.624;2023-01-29T03:06:44;16.08;;;10.45;;
52041;SDS011;38052;45.944;13.624;2023-01-29T03:09:13;19.45;;;11.82;;
52041;SDS011;38052;45.944;13.624;2023-01-29T03:11:43;19.45;;;12.30;;
52041;SDS011;38052;45.944;13.624;2023-01-29T03:14:12;21.52;;;11.88;;
52041;SDS011;38052;45.944;13.624;2023-01-29T03:16:42;18.52;;;11.20;;
52041;SDS011;38052;45.944;13.624;2023-01-29T03:19:29;23.77;;;12.70;;
52041;SDS011;38052;45.944;13.624;2023-01-29T03:22:00;21.67;;;11.93;;
52041;SDS011;38052;45.944;13.624;2023-01-29T03:27:12;17.38;;;11.23;;
52041;SDS011;38052;45.944;13.624;2023-01-29T03:29:58;24.90;;;11.95;;
52041;SDS011;38052;45.944;13.624;2023-01-29T03:32:44;20.15;;;12.48;;
52041;SDS011;38052;45.944;13.624;2023-01-29T03:35:11;18.98;;;10.25;;
52041;SDS011;38052;45.944;13.624;2023-01-29T03:37:40;16.25;;;10.38;;
52041;SDS011;38052;45.944;13.624;2023-01-29T03:40:08;20.55;;;11.88;;
52041;SDS011;38052;45.944;13.624;2023-01-29T03:42:48;17.73;;;11.82;;
52041;SDS011;38052;45.944;13.624;2023-01-29T03:47:48;17.23;;;10.65;;
52041;SDS011;38052;45.944;13.624;2023-01-29T03:52:54;18.02;;;11.65;;
52041;SDS011;38052;45.944;13.624;2023-01-29T03:55:23;13.40;;;9.05;;
52041;SDS011;38052;45.944;13.624;2023-01-29T03:57:58;13.45;;;7.70;;
52041;SDS011;38052;45.944;13.624;2023-01-29T04:00:27;16.20;;;10.25;;
52041;SDS011;38052;45.944;13.624;2023-01-29T04:05:20;15.25;;;9.10;;
52041;SDS011;38052;45.944;13.624;2023-01-29T04:07:48;14.48;;;9.38;;
52041;SDS011;38052;45.944;13.624;2023-01-29T04:10:18;15.10;;;7.88;;
52041;SDS011;38052;45.944;13.624;2023-01-29T04:12:49;14.13;;;8.20;;
52041;SDS011;38052;45.944;13.624;2023-01-29T04:15:17;13.02;;;7.82;;
52041;SDS011;38052;45.944;13.624;2023-01-29T04:17:51;13.13;;;7.85;;
52041;SDS011;38052;45.944;13.624;2023-01-29T04:20:18;12.77;;;7.28;;
52041;SDS011;38052;45.944;13.624;2023-01-29T04:22:46;14.18;;;7.63;;
52041;SDS011;38052;45.944;13.624;2023-01-29T04:25:13;11.60;;;6.80;;
52041;SDS011;38052;45.944;13.624;2023-01-29T04:35:31;11.45;;;7.45;;
52041;SDS011;38052;45.944;13.624;2023-01-29T04:40:47;12.38;;;7.80;;
52041;SDS011;38052;45.944;13.624;2023-01-29T04:43:37;13.63;;;7.97;;
52041;SDS011;38052;45.944;13.624;2023-01-29T04:48:48;12.88;;;7.28;;
52041;SDS011;38052;45.944;13.624;2023-01-29T04:51:19;13.43;;;7.75;;
52041;SDS011;38052;45.944;13.624;2023-01-29T04:56:23;13.52;;;7.68;;
52041;SDS011;38052;45.944;13.624;2023-01-29T04:58:54;12.65;;;7.82;;
52041;SDS011;38052;45.944;13.624;2023-01-29T05:01:23;13.90;;;7.68;;
52041;SDS011;38052;45.944;13.624;2023-01-29T05:03:53;12.88;;;8.10;;
52041;SDS011;38052;45.944;13.624;2023-01-29T05:06:21;11.27;;;7.10;;
52041;SDS011;38052;45.944;13.624;2023-01-29T05:08:48;12.00;;;7.85;;
52041;SDS011;38052;45.944;13.624;2023-01-29T05:11:16;15.25;;;8.05;;
52041;SDS011;38052;45.944;13.624;2023-01-29T05:13:43;10.85;;;7.60;;
52041;SDS011;38052;45.944;13.624;2023-01-29T05:16:15;9.75;;;7.15;;
52041;SDS011;38052;45.944;13.624;2023-01-29T05:18:44;13.98;;;8.25;;
52041;SDS011;38052;45.944;13.624;2023-01-29T05:21:11;12.98;;;7.53;;
52041;SDS011;38052;45.944;13.624;2023-01-29T05:23:37;12.85;;;7.85;;
52041;SDS011;38052;45.944;13.624;2023-01-29T05:26:04;13.77;;;8.50;;
52041;SDS011;38052;45.944;13.624;2023-01-29T05:28:31;12.07;;;6.78;;
52041;SDS011;38052;45.944;13.624;2023-01-29T05:30:57;12.80;;;7.72;;
52041;SDS011;38052;45.944;13.624;2023-01-29T05:33:27;13.07;;;7.38;;
52041;SDS011;38052;45.944;13.624;2023-01-29T05:35:54;11.77;;;7.53;;
52041;SDS011;38052;45.944;13.624;2023-01-29T05:38:21;12.23;;;8.00;;
52041;SDS011;38052;45.944;13.624;2023-01-29T05:40:48;16.13;;;7.40;;
52041;SDS011;38052;45.944;13.624;2023-01-29T05:43:15;11.70;;;6.50;;
52041;SDS011;38052;45.944;13.624;2023-01-29T05:45:41;9.52;;;6.35;;
52041;SDS011;38052;45.944;13.624;2023-01-29T05:48:08;12.63;;;7.57;;
52041;SDS011;38052;45.944;13.624;2023-01-29T05:50:34;9.90;;;6.75;;
52041;SDS011;38052;45.944;13.624;2023-01-29T05:53:01;13.80;;;7.07;;
52041;SDS011;38052;45.944;13.624;2023-01-29T05:55:27;12.65;;;7.28;;
52041;SDS011;38052;45.944;13.624;2023-01-29T05:57:53;12.63;;;7.22;;
52041;SDS011;38052;45.944;13.624;2023-01-29T06:00:20;11.95;;;7.57;;
52041;SDS011;38052;45.944;13.624;2023-01-29T06:02:46;12.60;;;8.20;;
52041;SDS011;38052;45.944;13.624;2023-01-29T06:05:13;13.80;;;8.98;;
52041;SDS011;38052;45.944;13.624;2023-01-29T06:07:39;11.13;;;7.28;;
52041;SDS011;38052;45.944;13.624;2023-01-29T06:10:10;13.70;;;8.13;;
52041;SDS011;38052;45.944;13.624;2023-01-29T06:12:36;14.07;;;8.38;;
52041;SDS011;38052;45.944;13.624;2023-01-29T06:15:03;13.18;;;7.38;;
52041;SDS011;38052;45.944;13.624;2023-01-29T06:17:29;13.38;;;8.25;;
52041;SDS011;38052;45.944;13.624;2023-01-29T06:19:56;11.57;;;7.47;;
52041;SDS011;38052;45.944;13.624;2023-01-29T06:22:23;12.50;;;7.43;;
52041;SDS011;38052;45.944;13.624;2023-01-29T06:24:49;11.60;;;6.97;;
52041;SDS011;38052;45.944;13.624;2023-01-29T06:27:16;12.93;;;7.32;;
52041;SDS011;38052;45.944;13.624;2023-01-29T06:29:42;12.70;;;8.82;;
52041;SDS011;38052;45.944;13.624;2023-01-29T06:32:09;12.85;;;7.32;;
52041;SDS011;38052;45.944;13.624;2023-01-29T06:34:35;14.70;;;7.13;;
52041;SDS011;38052;45.944;13.624;2023-01-29T06:37:02;13.45;;;7.72;;
52041;SDS011;38052;45.944;13.624;2023-01-29T06:39:28;13.15;;;8.00;;
52041;SDS011;38052;45.944;13.624;2023-01-29T06:41:54;13.73;;;8.25;;
52041;SDS011;38052;45.944;13.624;2023-01-29T06:44:20;11.82;;;7.20;;
52041;SDS011;38052;45.944;13.624;2023-01-29T06:46:47;11.52;;;7.25;;
52041;SDS011;38052;45.944;13.624;2023-01-29T06:49:13;12.60;;;8.60;;
52041;SDS011;38052;45.944;13.624;2023-01-29T06:51:40;13.60;;;7.85;;
52041;SDS011;38052;45.944;13.624;2023-01-29T06:54:06;13.25;;;7.72;;
52041;SDS011;38052;45.944;13.624;2023-01-29T06:56:32;13.38;;;7.88;;
52041;SDS011;38052;45.944;13.624;2023-01-29T06:58:59;13.98;;;8.35;;
52041;SDS011;38052;45.944;13.624;2023-01-29T07:01:25;13.18;;;8.93;;
52041;SDS011;38052;45.944;13.624;2023-01-29T07:03:52;14.10;;;8.93;;
52041;SDS011;38052;45.944;13.624;2023-01-29T07:06:18;15.63;;;8.40;;
52041;SDS011;38052;45.944;13.624;2023-01-29T07:08:44;11.20;;;7.82;;
52041;SDS011;38052;45.944;13.624;2023-01-29T07:11:11;13.30;;;8.27;;
52041;SDS011;38052;45.944;13.624;2023-01-29T07:13:37;12.20;;;8.32;;
52041;SDS011;38052;45.944;13.624;2023-01-29T07:16:04;11.18;;;6.88;;
52041;SDS011;38052;45.944;13.624;2023-01-29T07:18:31;13.77;;;8.15;;
52041;SDS011;38052;45.944;13.624;2023-01-29T07:20:57;10.55;;;6.50;;
52041;SDS011;38052;45.944;13.624;2023-01-29T07:23:23;9.70;;;6.80;;
52041;SDS011;38052;45.944;13.624;2023-01-29T07:25:50;11.32;;;7.15;;
52041;SDS011;38052;45.944;13.624;2023-01-29T07:28:17;12.82;;;7.72;;
52041;SDS011;38052;45.944;13.624;2023-01-29T07:30:43;10.88;;;6.53;;
52041;SDS011;38052;45.944;13.624;2023-01-29T07:33:10;14.63;;;7.78;;
52041;SDS011;38052;45.944;13.624;2023-01-29T07:35:37;12.80;;;7.93;;
52041;SDS011;38052;45.944;13.624;2023-01-29T07:38:03;11.32;;;7.57;;
52041;SDS011;38052;45.944;13.624;2023-01-29T07:40:30;10.57;;;6.88;;
52041;SDS011;38052;45.944;13.624;2023-01-29T07:43:00;14.30;;;7.93;;
52041;SDS011;38052;45.944;13.624;2023-01-29T07:45:27;13.60;;;7.60;;
52041;SDS011;38052;45.944;13.624;2023-01-29T07:47:54;12.05;;;8.50;;
52041;SDS011;38052;45.944;13.624;2023-01-29T07:50:22;10.95;;;6.47;;
52041;SDS011;38052;45.944;13.624;2023-01-29T07:52:48;11.65;;;7.50;;
52041;SDS011;38052;45.944;13.624;2023-01-29T07:55:15;11.50;;;7.18;;
52041;SDS011;38052;45.944;13.624;2023-01-29T07:57:42;11.30;;;7.22;;
52041;SDS011;38052;45.944;13.624;2023-01-29T08:00:09;11.23;;;7.45;;
52041;SDS011;38052;45.944;13.624;2023-01-29T08:02:35;12.57;;;7.65;;
52041;SDS011;38052;45.944;13.624;2023-01-29T08:05:02;10.75;;;7.18;;
52041;SDS011;38052;45.944;13.624;2023-01-29T08:07:28;11.55;;;7.60;;
52041;SDS011;38052;45.944;13.624;2023-01-29T08:09:55;13.85;;;8.25;;
52041;SDS011;38052;45.944;13.624;2023-01-29T08:12:22;12.18;;;7.43;;
52041;SDS011;38052;45.944;13.624;2023-01-29T08:14:48;11.95;;;7.32;;
52041;SDS011;38052;45.944;13.624;2023-01-29T08:17:15;11.98;;;7.90;;
52041;SDS011;38052;45.944;13.624;2023-01-29T08:19:41;11.82;;;7.63;;
52041;SDS011;38052;45.944;13.624;2023-01-29T08:22:08;9.98;;;6.93;;
52041;SDS011;38052;45.944;13.624;2023-01-29T08:24:35;10.55;;;6.40;;
52041;SDS011;38052;45.944;13.624;2023-01-29T08:27:01;12.40;;;7.78;;
52041;SDS011;38052;45.944;13.624;2023-01-29T08:29:28;10.98;;;7.43;;
52041;SDS011;38052;45.944;13.624;2023-01-29T08:31:54;12.60;;;7.18;;
52041;SDS011;38052;45.944;13.624;2023-01-29T08:34:21;11.82;;;7.07;;
52041;SDS011;38052;45.944;13.624;2023-01-29T08:36:47;9.68;;;6.70;;
52041;SDS011;38052;45.944;13.624;2023-01-29T08:39:13;11.32;;;6.22;;
52041;SDS011;38052;45.944;13.624;2023-01-29T08:41:40;10.60;;;7.05;;
52041;SDS011;38052;45.944;13.624;2023-01-29T08:44:07;10.20;;;6.65;;
52041;SDS011;38052;45.944;13.624;2023-01-29T08:46:33;10.25;;;6.13;;
52041;SDS011;38052;45.944;13.624;2023-01-29T08:49:00;9.82;;;6.57;;
52041;SDS011;38052;45.944;13.624;2023-01-29T08:51:26;9.02;;;5.95;;
52041;SDS011;38052;45.944;13.624;2023-01-29T08:53:52;11.57;;;6.47;;
52041;SDS011;38052;45.944;13.624;2023-01-29T08:56:19;12.02;;;6.55;;
52041;SDS011;38052;45.944;13.624;2023-01-29T08:58:46;11.57;;;6.25;;
52041;SDS011;38052;45.944;13.624;2023-01-29T09:01:12;8.50;;;5.80;;
52041;SDS011;38052;45.944;13.624;2023-01-29T09:03:39;8.30;;;5.13;;
52041;SDS011;38052;45.944;13.624;2023-01-29T09:06:09;8.50;;;5.78;;
52041;SDS011;38052;45.944;13.624;2023-01-29T09:08:35;9.70;;;6.25;;
52041;SDS011;38052;45.944;13.624;2023-01-29T09:11:01;8.10;;;4.90;;
52041;SDS011;38052;45.944;13.624;2023-01-29T09:13:29;7.82;;;5.22;;
52041;SDS011;38052;45.944;13.624;2023-01-29T09:16:01;8.65;;;5.35;;
52041;SDS011;38052;45.944;13.624;2023-01-29T09:18:28;8.77;;;5.70;;
52041;SDS011;38052;45.944;13.624;2023-01-29T09:20:54;7.15;;;4.55;;
52041;SDS011;38052;45.944;13.624;2023-01-29T09:23:21;9.55;;;5.47;;
52041;SDS011;38052;45.944;13.624;2023-01-29T09:25:48;8.23;;;5.38;;
52041;SDS011;38052;45.944;13.624;2023-01-29T09:28:14;10.68;;;5.72;;
52041;SDS011;38052;45.944;13.624;2023-01-29T09:30:44;7.60;;;4.68;;
52041;SDS011;38052;45.944;13.624;2023-01-29T09:33:10;9.65;;;5.90;;
52041;SDS011;38052;45.944;13.624;2023-01-29T09:35:39;8.20;;;5.97;;
52041;SDS011;38052;45.944;13.624;2023-01-29T09:38:05;6.65;;;4.78;;
52041;SDS011;38052;45.944;13.624;2023-01-29T09:48:42;8.98;;;5.40;;
52041;SDS011;38052;45.944;13.624;2023-01-29T09:51:13;8.15;;;5.53;;
52041;SDS011;38052;45.944;13.624;2023-01-29T09:53:46;8.45;;;5.47;;
52041;SDS011;38052;45.944;13.624;2023-01-29T09:56:18;14.90;;;5.63;;
52041;SDS011;38052;45.944;13.624;2023-01-29T09:58:45;8.68;;;6.00;;
52041;SDS011;38052;45.944;13.624;2023-01-29T10:06:17;11.30;;;5.82;;
52041;SDS011;38052;45.944;13.624;2023-01-29T10:26:41;10.23;;;6.20;;
52041;SDS011;38052;45.944;13.624;2023-01-29T10:29:09;10.00;;;5.97;;
52041;SDS011;38052;45.944;13.624;2023-01-29T10:31:40;11.27;;;6.55;;
52041;SDS011;38052;45.944;13.624;2023-01-29T10:34:13;7.80;;;5.60;;
52041;SDS011;38052;45.944;13.624;2023-01-29T10:36:45;9.98;;;5.93;;
52041;SDS011;38052;45.944;13.624;2023-01-29T10:39:18;10.15;;;5.75;;
52041;SDS011;38052;45.944;13.624;2023-01-29T10:57:35;7.07;;;5.25;;
52041;SDS011;38052;45.944;13.624;2023-01-29T11:05:04;9.27;;;4.93;;
52041;SDS011;38052;45.944;13.624;2023-01-29T11:07:34;10.15;;;6.20;;
52041;SDS011;38052;45.944;13.624;2023-01-29T11:10:10;6.90;;;5.10;;
52041;SDS011;38052;45.944;13.624;2023-01-29T11:12:37;11.43;;;6.10;;
52041;SDS011;38052;45.944;13.624;2023-01-29T11:15:26;8.70;;;5.65;;
52041;SDS011;38052;45.944;13.624;2023-01-29T11:18:04;10.43;;;5.50;;
52041;SDS011;38052;45.944;13.624;2023-01-29T11:20:31;9.68;;;6.13;;
52041;SDS011;38052;45.944;13.624;2023-01-29T11:22:57;9.15;;;6.00;;
52041;SDS011;38052;45.944;13.624;2023-01-29T11:25:24;9.73;;;5.95;;
52041;SDS011;38052;45.944;13.624;2023-01-29T11:27:56;10.48;;;5.55;;
52041;SDS011;38052;45.944;13.624;2023-01-29T11:30:25;8.95;;;5.63;;
52041;SDS011;38052;45.944;13.624;2023-01-29T11:32:57;9.77;;;6.10;;
52041;SDS011;38052;45.944;13.624;2023-01-29T11:35:25;11.00;;;6.57;;
52041;SDS011;38052;45.944;13.624;2023-01-29T11:37:54;9.73;;;6.60;;
52041;SDS011;38052;45.944;13.624;2023-01-29T11:40:35;11.98;;;5.90;;
52041;SDS011;38052;45.944;13.624;2023-01-29T11:43:20;9.20;;;4.97;;
52041;SDS011;38052;45.944;13.624;2023-01-29T11:45:52;8.65;;;5.00;;
52041;SDS011;38052;45.944;13.624;2023-01-29T11:48:19;8.88;;;5.47;;
52041;SDS011;38052;45.944;13.624;2023-01-29T11:50:55;8.00;;;5.60;;
52041;SDS011;38052;45.944;13.624;2023-01-29T11:56:03;8.55;;;5.63;;
52041;SDS011;38052;45.944;13.624;2023-01-29T11:58:31;9.20;;;5.85;;
52041;SDS011;38052;45.944;13.624;2023-01-29T12:00:58;8.48;;;5.68;;
52041;SDS011;38052;45.944;13.624;2023-01-29T12:03:35;8.55;;;5.72;;
52041;SDS011;38052;45.944;13.624;2023-01-29T12:06:07;9.85;;;6.18;;
52041;SDS011;38052;45.944;13.624;2023-01-29T12:08:37;9.43;;;5.68;;
52041;SDS011;38052;45.944;13.624;2023-01-29T12:11:08;8.68;;;5.65;;
52041;SDS011;38052;45.944;13.624;2023-01-29T12:13:34;7.00;;;5.13;;
52041;SDS011;38052;45.944;13.624;2023-01-29T12:18:47;8.05;;;5.78;;
52041;SDS011;38052;45.944;13.624;2023-01-29T12:21:20;9.30;;;6.47;;
52041;SDS011;38052;45.944;13.624;2023-01-29T12:26:21;10.25;;;5.55;;
52041;SDS011;38052;45.944;13.624;2023-01-29T12:31:37;11.48;;;7.13;;
52041;SDS011;38052;45.944;13.624;2023-01-29T12:34:15;7.85;;;4.53;;
52041;SDS011;38052;45.944;13.624;2023-01-29T12:36:48;9.63;;;6.03;;
52041;SDS011;38052;45.944;13.624;2023-01-29T12:39:17;8.63;;;5.57;;
52041;SDS011;38052;45.944;13.624;2023-01-29T12:44:15;7.18;;;5.05;;
52041;SDS011;38052;45.944;13.624;2023-01-29T12:46:44;8.27;;;5.55;;
52041;SDS011;38052;45.944;13.624;2023-01-29T12:49:16;8.32;;;5.90;;
52041;SDS011;38052;45.944;13.624;2023-01-29T12:51:52;9.52;;;6.07;;
52041;SDS011;38052;45.944;13.624;2023-01-29T12:57:13;6.53;;;4.53;;
52041;SDS011;38052;45.944;13.624;2023-01-29T12:59:44;7.30;;;5.32;;
52041;SDS011;38052;45.944;13.624;2023-01-29T13:02:14;8.50;;;5.68;;
52041;SDS011;38052;45.944;13.624;2023-01-29T13:04:47;9.75;;;5.95;;
52041;SDS011;38052;45.944;13.624;2023-01-29T13:07:16;9.10;;;6.18;;
52041;SDS011;38052;45.944;13.624;2023-01-29T13:09:49;8.73;;;5.82;;
52041;SDS011;38052;45.944;13.624;2023-01-29T13:12:17;9.93;;;5.90;;
52041;SDS011;38052;45.944;13.624;2023-01-29T13:17:18;9.40;;;5.18;;
52041;SDS011;38052;45.944;13.624;2023-01-29T13:19:50;7.68;;;4.75;;
52041;SDS011;38052;45.944;13.624;2023-01-29T13:22:19;7.55;;;5.05;;
52041;SDS011;38052;45.944;13.624;2023-01-29T13:24:47;7.10;;;4.95;;
52041;SDS011;38052;45.944;13.624;2023-01-29T13:27:17;7.72;;;4.72;;
52041;SDS011;38052;45.944;13.624;2023-01-29T13:29:45;10.05;;;5.85;;
52041;SDS011;38052;45.944;13.624;2023-01-29T13:32:11;9.98;;;5.78;;
52041;SDS011;38052;45.944;13.624;2023-01-29T13:34:44;7.85;;;5.53;;
52041;SDS011;38052;45.944;13.624;2023-01-29T13:37:16;7.70;;;5.30;;
52041;SDS011;38052;45.944;13.624;2023-01-29T13:39:46;8.82;;;5.25;;
52041;SDS011;38052;45.944;13.624;2023-01-29T13:44:59;8.98;;;4.80;;
52041;SDS011;38052;45.944;13.624;2023-01-29T13:47:28;7.55;;;5.07;;
52041;SDS011;38052;45.944;13.624;2023-01-29T13:49:59;8.73;;;5.43;;
52041;SDS011;38052;45.944;13.624;2023-01-29T13:57:48;8.20;;;4.97;;
52041;SDS011;38052;45.944;13.624;2023-01-29T14:10:24;8.98;;;5.13;;
52041;SDS011;38052;45.944;13.624;2023-01-29T14:12:51;7.97;;;5.18;;
52041;SDS011;38052;45.944;13.624;2023-01-29T14:15:22;5.00;;;4.07;;
52041;SDS011;38052;45.944;13.624;2023-01-29T14:17:55;6.77;;;4.67;;
52041;SDS011;38052;45.944;13.624;2023-01-29T14:20:57;8.52;;;4.72;;
52041;SDS011;38052;45.944;13.624;2023-01-29T14:23:21;7.65;;;4.55;;
52041;SDS011;38052;45.944;13.624;2023-01-29T14:25:49;6.95;;;4.10;;
52041;SDS011;38052;45.944;13.624;2023-01-29T14:28:19;7.88;;;4.72;;
52041;SDS011;38052;45.944;13.624;2023-01-29T14:30:47;7.10;;;4.75;;
52041;SDS011;38052;45.944;13.624;2023-01-29T14:33:56;7.30;;;4.45;;
52041;SDS011;38052;45.944;13.624;2023-01-29T14:36:12;6.40;;;3.83;;
52041;SDS011;38052;45.944;13.624;2023-01-29T14:38:45;8.85;;;4.65;;
52041;SDS011;38052;45.944;13.624;2023-01-29T14:41:22;7.15;;;4.40;;
52041;SDS011;38052;45.944;13.624;2023-01-29T14:43:50;4.65;;;3.80;;
52041;SDS011;38052;45.944;13.624;2023-01-29T14:48:58;7.63;;;4.25;;
52041;SDS011;38052;45.944;13.624;2023-01-29T14:51:24;8.40;;;4.35;;
52041;SDS011;38052;45.944;13.624;2023-01-29T14:53:53;6.70;;;3.97;;
52041;SDS011;38052;45.944;13.624;2023-01-29T14:58:56;6.03;;;4.20;;
52041;SDS011;38052;45.944;13.624;2023-01-29T15:01:36;6.03;;;4.18;;
52041;SDS011;38052;45.944;13.624;2023-01-29T15:04:04;7.00;;;4.65;;
52041;SDS011;38052;45.944;13.624;2023-01-29T15:06:37;6.72;;;4.45;;
52041;SDS011;38052;45.944;13.624;2023-01-29T15:09:16;6.53;;;4.75;;
52041;SDS011;38052;45.944;13.624;2023-01-29T15:11:57;8.35;;;4.75;;
52041;SDS011;38052;45.944;13.624;2023-01-29T15:14:28;8.70;;;4.97;;
52041;SDS011;38052;45.944;13.624;2023-01-29T15:19:28;9.35;;;5.25;;
52041;SDS011;38052;45.944;13.624;2023-01-29T15:22:01;8.18;;;5.72;;
52041;SDS011;38052;45.944;13.624;2023-01-29T15:24:27;7.82;;;4.85;;
52041;SDS011;38052;45.944;13.624;2023-01-29T15:26:53;7.32;;;4.68;;
52041;SDS011;38052;45.944;13.624;2023-01-29T15:29:24;8.32;;;4.28;;
52041;SDS011;38052;45.944;13.624;2023-01-29T15:31:51;7.43;;;4.67;;
52041;SDS011;38052;45.944;13.624;2023-01-29T15:34:17;7.18;;;4.10;;
52041;SDS011;38052;45.944;13.624;2023-01-29T15:36:44;8.70;;;4.63;;
52041;SDS011;38052;45.944;13.624;2023-01-29T15:39:19;6.40;;;4.18;;
52041;SDS011;38052;45.944;13.624;2023-01-29T15:41:47;6.30;;;3.65;;
52041;SDS011;38052;45.944;13.624;2023-01-29T15:44:18;8.10;;;4.63;;
52041;SDS011;38052;45.944;13.624;2023-01-29T15:46:54;8.87;;;4.57;;
52041;SDS011;38052;45.944;13.624;2023-01-29T15:49:28;8.80;;;4.35;;
52041;SDS011;38052;45.944;13.624;2023-01-29T15:51:56;7.97;;;4.13;;
52041;SDS011;38052;45.944;13.624;2023-01-29T15:54:23;7.85;;;4.70;;
52041;SDS011;38052;45.944;13.624;2023-01-29T15:56:51;8.63;;;5.25;;
52041;SDS011;38052;45.944;13.624;2023-01-29T15:59:18;7.55;;;4.50;;
52041;SDS011;38052;45.944;13.624;2023-01-29T16:01:48;8.27;;;4.45;;
52041;SDS011;38052;45.944;13.624;2023-01-29T16:04:19;7.72;;;4.65;;
52041;SDS011;38052;45.944;13.624;2023-01-29T16:06:47;7.90;;;5.47;;
52041;SDS011;38052;45.944;13.624;2023-01-29T16:09:19;8.57;;;5.15;;
52041;SDS011;38052;45.944;13.624;2023-01-29T16:11:47;10.13;;;5.55;;
52041;SDS011;38052;45.944;13.624;2023-01-29T16:14:14;9.15;;;5.70;;
52041;SDS011;38052;45.944;13.624;2023-01-29T16:16:43;8.40;;;5.63;;
52041;SDS011;38052;45.944;13.624;2023-01-29T16:21:45;8.80;;;5.72;;
52041;SDS011;38052;45.944;13.624;2023-01-29T16:24:14;8.68;;;5.07;;
52041;SDS011;38052;45.944;13.624;2023-01-29T16:26:46;7.90;;;5.03;;
52041;SDS011;38052;45.944;13.624;2023-01-29T16:29:25;8.75;;;5.25;;
52041;SDS011;38052;45.944;13.624;2023-01-29T16:31:53;8.85;;;5.45;;
52041;SDS011;38052;45.944;13.624;2023-01-29T16:34:27;8.65;;;5.40;;
52041;SDS011;38052;45.944;13.624;2023-01-29T16:36:54;12.68;;;6.03;;
52041;SDS011;38052;45.944;13.624;2023-01-29T16:39:25;9.20;;;5.15;;
52041;SDS011;38052;45.944;13.624;2023-01-29T16:46:46;11.25;;;5.82;;
52041;SDS011;38052;45.944;13.624;2023-01-29T16:51:47;9.52;;;5.47;;
52041;SDS011;38052;45.944;13.624;2023-01-29T16:54:13;9.68;;;6.10;;
52041;SDS011;38052;45.944;13.624;2023-01-29T16:56:44;11.63;;;6.53;;
52041;SDS011;38052;45.944;13.624;2023-01-29T16:59:15;11.25;;;6.47;;
52041;SDS011;38052;45.944;13.624;2023-01-29T17:01:43;11.65;;;6.82;;
52041;SDS011;38052;45.944;13.624;2023-01-29T17:04:12;14.18;;;7.18;;
52041;SDS011;38052;45.944;13.624;2023-01-29T17:06:39;10.30;;;7.40;;
52041;SDS011;38052;45.944;13.624;2023-01-29T17:09:06;11.40;;;6.63;;
52041;SDS011;38052;45.944;13.624;2023-01-29T17:11:39;10.27;;;6.03;;